createdAt,value
2023-05-02T00:00:54.686Z,96.78
2023-05-02T00:01:54.535Z,96.68
2023-05-02T00:02:54.753Z,96.06
2023-05-02T00:03:54.552Z,96.58
2023-05-02T00:04:54.637Z,96.58
2023-05-02T00:05:54.422Z,96.89
2023-05-02T00:06:54.686Z,97.50
2023-05-02T00:07:54.412Z,97.50
2023-05-02T00:08:54.693Z,97.61
2023-05-02T00:09:54.381Z,97.50
2023-05-02T00:10:54.576Z,97.50
2023-05-02T00:11:54.351Z,97.61
2023-05-02T00:12:54.563Z,97.50
2023-05-02T00:13:54.364Z,97.30
2023-05-02T00:14:54.626Z,97.30
2023-05-02T00:15:54.313Z,97.30
2023-05-02T00:16:54.488Z,97.50
2023-05-02T00:17:54.356Z,97.40
2023-05-02T00:18:54.396Z,97.71
2023-05-02T00:19:54.246Z,98.22
2023-05-02T00:20:54.355Z,98.12
2023-05-02T00:21:54.251Z,98.22
2023-05-02T00:22:54.327Z,98.12
2023-05-02T00:23:54.337Z,97.91
2023-05-02T00:24:54.242Z,97.71
2023-05-02T00:25:54.387Z,97.50
2023-05-02T00:26:54.194Z,97.71
2023-05-02T00:27:54.363Z,97.81
2023-05-02T00:28:54.162Z,97.71
2023-05-02T00:29:54.386Z,97.36
2023-05-02T00:30:54.209Z,97.09
2023-05-02T00:31:54.180Z,96.99
2023-05-02T00:32:54.162Z,96.99
2023-05-02T00:33:54.191Z,97.09
2023-05-02T00:34:54.095Z,97.30
2023-05-02T00:35:54.243Z,97.40
2023-05-02T00:36:54.054Z,97.50
2023-05-02T00:37:54.103Z,97.40
2023-05-02T00:38:54.033Z,97.40
2023-05-02T00:39:54.115Z,97.50
2023-05-02T00:40:54.006Z,97.81
2023-05-02T00:41:54.173Z,97.91
2023-05-02T00:42:53.978Z,97.91
2023-05-02T00:43:55.117Z,97.71
2023-05-02T00:44:53.949Z,97.50
2023-05-02T00:45:54.092Z,97.40
2023-05-02T00:46:54.071Z,97.40
2023-05-02T00:47:54.168Z,97.61
2023-05-02T00:48:53.949Z,97.91
2023-05-02T00:49:54.092Z,97.91
2023-05-02T00:50:53.898Z,98.02
2023-05-02T00:51:54.111Z,98.02
2023-05-02T00:52:53.889Z,98.02
2023-05-02T00:53:53.960Z,98.43
2023-05-02T00:54:53.847Z,98.69
2023-05-02T00:55:53.937Z,98.49
2023-05-02T00:56:53.797Z,98.07
2023-05-02T00:57:53.986Z,97.97
2023-05-02T00:58:53.795Z,97.87
2023-05-02T00:59:53.940Z,97.87
2023-05-02T01:00:53.757Z,98.07
2023-05-02T01:01:54.030Z,98.07
2023-05-02T01:02:53.869Z,98.07
2023-05-02T01:03:54.022Z,98.07
2023-05-02T01:04:53.708Z,98.28
2023-05-02T01:05:53.922Z,98.38
2023-05-02T01:06:53.751Z,98.38
2023-05-02T01:07:53.923Z,98.24
2023-05-02T01:08:53.638Z,98.13
2023-05-02T01:09:53.773Z,98.13
2023-05-02T01:10:53.915Z,98.13
2023-05-02T01:11:53.584Z,97.92
2023-05-02T01:12:53.758Z,97.82
2023-05-02T01:13:53.573Z,97.82
2023-05-02T01:14:53.722Z,98.03
2023-05-02T01:15:53.587Z,98.03
2023-05-02T01:16:53.680Z,97.92
2023-05-02T01:17:54.219Z,97.72
2023-05-02T01:18:53.597Z,97.62
2023-05-02T01:19:53.504Z,97.62
2023-05-02T01:20:53.673Z,97.62
2023-05-02T01:21:53.447Z,97.62
2023-05-02T01:22:53.538Z,97.52
2023-05-02T01:23:53.443Z,97.72
2023-05-02T01:24:53.632Z,97.82
2023-05-02T01:25:53.403Z,97.72
2023-05-02T01:26:53.596Z,97.72
2023-05-02T01:27:53.367Z,97.82
2023-05-02T01:28:53.455Z,97.62
2023-05-02T01:29:53.383Z,97.72
2023-05-02T01:30:53.523Z,97.62
2023-05-02T01:31:53.375Z,97.31
2023-05-02T01:32:53.425Z,97.31
2023-05-02T01:33:53.300Z,97.20
2023-05-02T01:34:53.385Z,97.10
2023-05-02T01:35:53.288Z,97.00
2023-05-02T01:36:53.451Z,96.94
2023-05-02T01:37:53.257Z,96.94
2023-05-02T01:38:53.323Z,97.15
2023-05-02T01:39:53.204Z,97.36
2023-05-02T01:40:53.327Z,97.36
2023-05-02T01:41:53.333Z,97.25
2023-05-02T01:42:53.247Z,97.36
2023-05-02T01:43:53.234Z,97.25
2023-05-02T01:44:53.191Z,97.36
2023-05-02T01:45:53.251Z,97.36
2023-05-02T01:46:53.228Z,97.25
2023-05-02T01:47:53.231Z,97.36
2023-05-02T01:48:53.125Z,97.45
2023-05-02T01:49:53.182Z,97.45
2023-05-02T01:50:53.097Z,97.56
2023-05-02T01:51:53.266Z,97.15
2023-05-02T01:52:53.088Z,96.94
2023-05-02T01:53:53.143Z,96.64
2023-05-02T01:54:53.065Z,96.53
2023-05-02T01:55:53.223Z,96.58
2023-05-02T01:56:53.037Z,96.58
2023-05-02T01:57:53.031Z,96.68
2023-05-02T01:58:53.037Z,96.78
2023-05-02T01:59:53.163Z,96.89
2023-05-02T02:00:53.024Z,96.99
2023-05-02T02:01:53.278Z,96.78
2023-05-02T02:02:53.038Z,96.89
2023-05-02T02:03:53.010Z,97.09
2023-05-02T02:04:53.088Z,97.50
2023-05-02T02:05:52.880Z,97.61
2023-05-02T02:06:53.039Z,97.03
2023-05-02T02:07:53.039Z,96.00
2023-05-02T02:08:52.942Z,95.49
2023-05-02T02:09:52.993Z,95.80
2023-05-02T02:10:52.846Z,96.46
2023-05-02T02:11:52.948Z,96.36
2023-05-02T02:12:52.944Z,96.46
2023-05-02T02:13:52.780Z,96.67
2023-05-02T02:14:53.032Z,97.08
2023-05-02T02:15:52.762Z,96.67
2023-05-02T02:16:53.025Z,96.88
2023-05-02T02:17:52.790Z,97.28
2023-05-02T02:18:52.794Z,97.60
2023-05-02T02:19:52.739Z,97.49
2023-05-02T02:20:52.803Z,96.56
2023-05-02T02:21:52.684Z,96.46
2023-05-02T02:22:52.819Z,96.67
2023-05-02T02:23:52.644Z,96.77
2023-05-02T02:24:54.409Z,96.88
2023-05-02T02:25:52.630Z,96.71
2023-05-02T02:26:52.741Z,96.41
2023-05-02T02:27:52.607Z,96.30
2023-05-02T02:28:58.817Z,96.30
2023-05-02T02:29:52.744Z,96.71
2023-05-02T02:30:52.668Z,96.81
2023-05-02T02:31:52.826Z,97.13
2023-05-02T02:32:52.595Z,97.53
2023-05-02T02:33:52.664Z,97.53
2023-05-02T02:34:52.550Z,97.53
2023-05-02T02:35:52.582Z,97.43
2023-05-02T02:36:52.556Z,97.33
2023-05-02T02:37:52.653Z,97.49
2023-05-02T02:38:52.478Z,97.80
2023-05-02T02:39:52.504Z,98.00
2023-05-02T02:40:52.443Z,98.32
2023-05-02T02:41:52.559Z,98.42
2023-05-02T02:42:52.446Z,98.21
2023-05-02T02:43:52.440Z,97.80
2023-05-02T02:44:52.406Z,97.28
2023-05-02T02:45:52.692Z,96.97
2023-05-02T02:46:52.381Z,97.49
2023-05-02T02:47:52.484Z,97.69
2023-05-02T02:48:52.350Z,97.39
2023-05-02T02:49:52.362Z,97.18
2023-05-02T02:50:52.343Z,96.88
2023-05-02T02:51:52.427Z,96.67
2023-05-02T02:52:52.296Z,96.61
2023-05-02T02:53:52.412Z,96.61
2023-05-02T02:54:52.373Z,96.71
2023-05-02T02:55:52.222Z,96.81
2023-05-02T02:56:52.439Z,96.92
2023-05-02T02:57:52.228Z,96.92
2023-05-02T02:58:52.290Z,97.02
2023-05-02T02:59:52.252Z,97.64
2023-05-02T03:00:52.206Z,97.95
2023-05-02T03:01:52.433Z,97.95
2023-05-02T03:02:52.216Z,97.74
2023-05-02T03:03:52.232Z,97.48
2023-05-02T03:04:52.134Z,97.27
2023-05-02T03:05:52.178Z,97.17
2023-05-02T03:06:52.242Z,97.38
2023-05-02T03:07:52.290Z,97.58
2023-05-02T03:08:52.129Z,98.10
2023-05-02T03:09:52.143Z,98.50
2023-05-02T03:10:52.083Z,98.61
2023-05-02T03:11:52.122Z,98.50
2023-05-02T03:12:52.045Z,98.20
2023-05-02T03:13:52.220Z,97.78
2023-05-02T03:14:52.045Z,97.78
2023-05-02T03:15:52.231Z,97.89
2023-05-02T03:16:51.981Z,98.20
2023-05-02T03:17:52.209Z,98.30
2023-05-02T03:18:52.000Z,98.30
2023-05-02T03:19:52.129Z,98.10
2023-05-02T03:20:52.051Z,97.73
2023-05-02T03:21:51.908Z,97.63
2023-05-02T03:22:52.006Z,97.83
2023-05-02T03:23:51.899Z,98.14
2023-05-02T03:24:52.021Z,98.30
2023-05-02T03:25:51.856Z,98.14
2023-05-02T03:26:51.998Z,98.14
2023-05-02T03:27:51.825Z,98.03
2023-05-02T03:28:51.952Z,98.14
2023-05-02T03:29:51.796Z,98.24
2023-05-02T03:30:51.965Z,98.35
2023-05-02T03:31:51.819Z,98.61
2023-05-02T03:32:52.048Z,98.61
2023-05-02T03:33:51.747Z,98.71
2023-05-02T03:34:51.991Z,98.92
2023-05-02T03:35:51.741Z,98.92
2023-05-02T03:36:51.913Z,98.92
2023-05-02T03:37:51.723Z,98.92
2023-05-02T03:38:51.822Z,98.92
2023-05-02T03:39:51.668Z,98.92
2023-05-02T03:40:51.729Z,99.02
2023-05-02T03:41:51.628Z,99.08
2023-05-02T03:42:51.881Z,99.29
2023-05-02T03:43:51.643Z,99.49
2023-05-02T03:44:51.844Z,99.49
2023-05-02T03:45:51.638Z,99.49
2023-05-02T03:46:51.809Z,99.49
2023-05-02T03:47:51.632Z,99.60
2023-05-02T03:48:51.790Z,99.65
2023-05-02T03:49:51.595Z,99.76
2023-05-02T03:50:51.590Z,99.65
2023-05-02T03:51:51.550Z,99.65
2023-05-02T03:52:51.583Z,99.65
2023-05-02T03:53:51.541Z,99.55
2023-05-02T03:54:51.606Z,99.55
2023-05-02T03:55:51.486Z,99.44
2023-05-02T03:56:51.659Z,99.44
2023-05-02T03:57:51.476Z,99.40
2023-05-02T03:58:51.676Z,99.30
2023-05-02T03:59:51.425Z,99.09
2023-05-02T04:00:51.649Z,99.19
2023-05-02T04:01:51.425Z,99.09
2023-05-02T04:02:51.602Z,99.19
2023-05-02T04:03:51.460Z,99.30
2023-05-02T04:04:51.493Z,99.30
2023-05-02T04:05:51.358Z,99.30
2023-05-02T04:06:51.504Z,99.19
2023-05-02T04:07:51.433Z,99.19
2023-05-02T04:08:51.296Z,99.09
2023-05-02T04:09:51.452Z,98.88
2023-05-02T04:10:51.255Z,98.79
2023-05-02T04:11:51.426Z,98.68
2023-05-02T04:12:51.239Z,98.68
2023-05-02T04:13:52.700Z,98.68
2023-05-02T04:14:51.238Z,98.58
2023-05-02T04:15:51.430Z,98.58
2023-05-02T04:16:51.315Z,98.68
2023-05-02T04:17:51.342Z,98.68
2023-05-02T04:18:51.153Z,98.88
2023-05-02T04:19:51.420Z,98.94
2023-05-02T04:20:51.140Z,99.05
2023-05-02T04:21:51.237Z,99.05
2023-05-02T04:22:51.111Z,99.05
2023-05-02T04:23:51.312Z,98.94
2023-05-02T04:24:51.093Z,98.94
2023-05-02T04:25:51.295Z,98.84
2023-05-02T04:26:51.063Z,98.84
2023-05-02T04:27:51.234Z,98.84
2023-05-02T04:28:51.044Z,98.49
2023-05-02T04:29:51.156Z,98.43
2023-05-02T04:30:51.113Z,98.22
2023-05-02T04:31:51.100Z,98.12
2023-05-02T04:32:51.126Z,98.12
2023-05-02T04:33:51.117Z,98.02
2023-05-02T04:34:50.961Z,98.12
2023-05-02T04:35:51.082Z,98.12
2023-05-02T04:36:50.927Z,98.12
2023-05-02T04:37:51.168Z,98.22
2023-05-02T04:38:50.901Z,98.22
2023-05-02T04:39:51.080Z,98.22
2023-05-02T04:40:50.904Z,98.22
2023-05-02T04:41:51.026Z,98.22
2023-05-02T04:42:50.849Z,98.22
2023-05-02T04:43:51.043Z,98.33
2023-05-02T04:44:50.975Z,98.22
2023-05-02T04:45:50.897Z,98.22
2023-05-02T04:46:51.004Z,98.43
2023-05-02T04:47:50.869Z,98.38
2023-05-02T04:48:50.848Z,98.38
2023-05-02T04:49:50.869Z,98.28
2023-05-02T04:50:50.759Z,98.18
2023-05-02T04:51:50.897Z,98.18
2023-05-02T04:52:50.753Z,98.07
2023-05-02T04:53:50.794Z,98.07
2023-05-02T04:54:50.845Z,97.97
2023-05-02T04:55:50.702Z,97.97
2023-05-02T04:56:50.797Z,97.97
2023-05-02T04:57:50.683Z,97.97
2023-05-02T04:58:50.869Z,97.97
2023-05-02T04:59:50.656Z,97.87
2023-05-02T05:00:50.889Z,97.66
2023-05-02T05:01:50.732Z,97.56
2023-05-02T05:02:50.684Z,97.56
2023-05-02T05:03:50.742Z,97.45
2023-05-02T05:04:50.658Z,97.56
2023-05-02T05:05:50.621Z,97.56
2023-05-02T05:06:50.744Z,97.56
2023-05-02T05:07:50.560Z,97.52
2023-05-02T05:08:50.688Z,97.41
2023-05-02T05:09:52.057Z,97.31
2023-05-02T05:10:50.748Z,97.00
2023-05-02T05:11:50.504Z,96.90
2023-05-02T05:12:50.729Z,96.90
2023-05-02T05:13:50.474Z,97.00
2023-05-02T05:14:50.532Z,96.80
2023-05-02T05:15:50.573Z,96.80
2023-05-02T05:16:50.483Z,96.80
2023-05-02T05:17:50.607Z,96.90
2023-05-02T05:18:50.393Z,97.10
2023-05-02T05:19:50.466Z,97.00
2023-05-02T05:20:50.372Z,97.00
2023-05-02T05:21:50.541Z,96.90
2023-05-02T05:22:50.392Z,97.00
2023-05-02T05:23:50.511Z,96.90
2023-05-02T05:24:50.306Z,96.75
2023-05-02T05:25:50.415Z,96.75
2023-05-02T05:26:50.302Z,96.55
2023-05-02T05:27:50.495Z,96.65
2023-05-02T05:28:50.319Z,96.44
2023-05-02T05:29:50.687Z,96.44
2023-05-02T05:30:50.224Z,96.34
2023-05-02T05:31:50.472Z,96.34
2023-05-02T05:32:50.244Z,96.44
2023-05-02T05:33:50.340Z,96.34
2023-05-02T05:34:50.194Z,96.34
2023-05-02T05:35:50.295Z,96.44
2023-05-02T05:36:50.268Z,96.65
2023-05-02T05:37:50.164Z,96.65
2023-05-02T05:38:50.230Z,96.65
2023-05-02T05:39:50.127Z,96.65
2023-05-02T05:40:50.200Z,96.65
2023-05-02T05:41:50.114Z,96.65
2023-05-02T05:42:50.222Z,96.75
2023-05-02T05:43:50.137Z,96.60
2023-05-02T05:44:50.241Z,96.50
2023-05-02T05:45:50.116Z,96.40
2023-05-02T05:46:50.283Z,96.30
2023-05-02T05:47:50.098Z,96.40
2023-05-02T05:48:50.262Z,96.60
2023-05-02T05:49:50.021Z,96.70
2023-05-02T05:50:50.070Z,96.81
2023-05-02T05:51:50.009Z,96.66
2023-05-02T05:52:50.134Z,96.56
2023-05-02T05:53:49.984Z,96.66
2023-05-02T05:54:50.019Z,96.77
2023-05-02T05:55:49.932Z,96.87
2023-05-02T05:56:50.095Z,96.82
2023-05-02T05:57:50.155Z,96.72
2023-05-02T05:58:49.870Z,96.62
2023-05-02T05:59:50.102Z,96.72
2023-05-02T06:00:49.838Z,96.51
2023-05-02T06:01:49.959Z,96.47
2023-05-02T06:02:50.186Z,96.26
2023-05-02T06:03:49.927Z,95.95
2023-05-02T06:04:49.916Z,96.16
2023-05-02T06:05:49.825Z,96.06
2023-05-02T06:06:50.058Z,96.16
2023-05-02T06:07:49.770Z,96.37
2023-05-02T06:08:49.933Z,96.42
2023-05-02T06:09:49.740Z,96.53
2023-05-02T06:10:49.861Z,96.32
2023-05-02T06:11:49.779Z,96.22
2023-05-02T06:12:49.838Z,96.12
2023-05-02T06:13:49.733Z,96.12
2023-05-02T06:14:49.773Z,95.91
2023-05-02T06:15:49.698Z,96.01
2023-05-02T06:16:49.804Z,95.81
2023-05-02T06:17:49.687Z,95.70
2023-05-02T06:18:49.758Z,95.70
2023-05-02T06:19:49.662Z,95.50
2023-05-02T06:20:49.613Z,95.20
2023-05-02T06:21:49.638Z,95.20
2023-05-02T06:22:49.592Z,95.54
2023-05-02T06:23:49.617Z,95.44
2023-05-02T06:24:49.597Z,95.24
2023-05-02T06:25:49.542Z,95.14
2023-05-02T06:26:49.675Z,94.32
2023-05-02T06:27:49.520Z,94.21
2023-05-02T06:28:49.629Z,94.52
2023-05-02T06:29:49.494Z,94.46
2023-05-02T06:30:49.494Z,94.87
2023-05-02T06:31:49.559Z,95.39
2023-05-02T06:32:49.459Z,95.59
2023-05-02T06:33:49.469Z,95.90
2023-05-02T06:34:49.442Z,96.10
2023-05-02T06:35:49.487Z,96.00
2023-05-02T06:36:49.394Z,95.59
2023-05-02T06:37:49.550Z,95.39
2023-05-02T06:38:49.347Z,95.07
2023-05-02T06:39:49.677Z,95.07
2023-05-02T06:40:49.333Z,95.39
2023-05-02T06:41:49.537Z,95.59
2023-05-02T06:42:49.315Z,96.10
2023-05-02T06:43:49.441Z,96.16
2023-05-02T06:44:49.276Z,96.16
2023-05-02T06:45:49.499Z,96.26
2023-05-02T06:46:49.428Z,96.06
2023-05-02T06:47:49.669Z,95.95
2023-05-02T06:48:49.253Z,95.86
2023-05-02T06:49:49.385Z,95.50
2023-05-02T06:50:49.258Z,95.20
2023-05-02T06:51:49.403Z,95.29
2023-05-02T06:52:49.177Z,95.29
2023-05-02T06:53:49.414Z,95.09
2023-05-02T06:54:49.346Z,95.15
2023-05-02T06:55:49.222Z,95.15
2023-05-02T06:56:49.345Z,95.15
2023-05-02T06:57:49.182Z,93.82
2023-05-02T06:58:49.218Z,93.62
2023-05-02T06:59:49.242Z,93.71
2023-05-02T07:00:49.127Z,93.71
2023-05-02T07:01:49.285Z,93.62
2023-05-02T07:02:49.092Z,93.20
2023-05-02T07:03:49.308Z,93.30
2023-05-02T07:04:49.275Z,93.30
2023-05-02T07:05:49.062Z,93.41
2023-05-02T07:06:49.375Z,93.37
2023-05-02T07:07:49.024Z,93.47
2023-05-02T07:08:49.131Z,93.47
2023-05-02T07:09:49.116Z,93.12
2023-05-02T07:10:48.949Z,92.81
2023-05-02T07:11:49.181Z,92.81
2023-05-02T07:12:48.917Z,92.60
2023-05-02T07:13:49.086Z,92.36
2023-05-02T07:14:49.037Z,92.15
2023-05-02T07:15:48.919Z,92.25
2023-05-02T07:16:49.071Z,92.25
2023-05-02T07:17:48.912Z,91.70
2023-05-02T07:18:48.997Z,91.19
2023-05-02T07:19:48.899Z,90.88
2023-05-02T07:20:48.980Z,90.37
2023-05-02T07:21:48.833Z,90.02
2023-05-02T07:22:49.047Z,89.92
2023-05-02T07:23:48.892Z,90.02
2023-05-02T07:24:48.984Z,89.72
2023-05-02T07:25:49.291Z,88.70
2023-05-02T07:26:49.088Z,88.79
2023-05-02T07:27:48.924Z,88.90
2023-05-02T07:28:48.922Z,89.06
2023-05-02T07:29:48.772Z,88.14
2023-05-02T07:30:49.165Z,88.04
2023-05-02T07:31:48.863Z,89.17
2023-05-02T07:32:48.893Z,88.85
2023-05-02T07:33:48.741Z,88.55
2023-05-02T07:34:50.195Z,88.96
2023-05-02T07:35:48.639Z,88.55
2023-05-02T07:36:48.884Z,88.35
2023-05-02T07:37:48.708Z,88.31
2023-05-02T07:38:48.940Z,87.63
2023-05-02T07:39:48.719Z,88.10
2023-05-02T07:40:48.769Z,88.20
2023-05-02T07:41:48.670Z,87.70
2023-05-02T07:42:48.766Z,87.18
2023-05-02T07:43:48.593Z,86.77
2023-05-02T07:44:49.072Z,87.29
2023-05-02T07:45:48.779Z,86.88
2023-05-02T07:46:48.595Z,87.38
2023-05-02T07:47:48.738Z,88.20
2023-05-02T07:48:48.471Z,88.61
2023-05-02T07:49:48.570Z,88.20
2023-05-02T07:50:48.606Z,88.61
2023-05-02T07:51:48.475Z,88.41
2023-05-02T07:52:48.557Z,88.71
2023-05-02T07:53:48.420Z,88.26
2023-05-02T07:54:48.497Z,87.35
2023-05-02T07:55:48.404Z,87.04
2023-05-02T07:56:48.537Z,87.55
2023-05-02T07:57:48.377Z,87.65
2023-05-02T07:58:48.562Z,87.55
2023-05-02T07:59:48.317Z,87.96
2023-05-02T08:00:48.441Z,86.83
2023-05-02T08:01:48.412Z,86.22
2023-05-02T08:02:48.615Z,86.43
2023-05-02T08:03:48.376Z,87.04
2023-05-02T08:04:48.533Z,86.39
2023-05-02T08:05:48.267Z,85.98
2023-05-02T08:06:48.486Z,87.00
2023-05-02T08:07:48.204Z,85.57
2023-05-02T08:08:48.396Z,86.76
2023-05-02T08:09:48.296Z,86.55
2023-05-02T08:10:48.307Z,84.20
2023-05-02T08:11:48.289Z,84.31
2023-05-02T08:12:48.198Z,83.18
2023-05-02T08:13:48.326Z,83.70
2023-05-02T08:14:48.180Z,84.20
2023-05-02T08:15:48.241Z,85.02
2023-05-02T08:16:48.355Z,84.72
2023-05-02T08:17:48.161Z,86.04
2023-05-02T08:18:48.400Z,86.15
2023-05-02T08:19:48.102Z,85.13
2023-05-02T08:20:48.356Z,84.86
2023-05-02T08:21:48.185Z,84.14
2023-05-02T08:22:48.133Z,84.96
2023-05-02T08:23:48.219Z,86.08
2023-05-02T08:24:48.102Z,86.18
2023-05-02T08:25:48.204Z,86.39
2023-05-02T08:26:48.152Z,84.86
2023-05-02T08:27:48.012Z,85.88
2023-05-02T08:28:48.132Z,86.80
2023-05-02T08:29:47.936Z,86.90
2023-05-02T08:30:48.273Z,84.75
2023-05-02T08:31:48.110Z,84.55
2023-05-02T08:32:48.002Z,83.94
2023-05-02T08:33:48.135Z,84.25
2023-05-02T08:34:47.969Z,85.98
2023-05-02T08:35:48.216Z,87.00
2023-05-02T08:36:47.999Z,86.69
2023-05-02T08:37:48.137Z,84.96
2023-05-02T08:38:47.995Z,85.98
2023-05-02T08:39:48.126Z,85.68
2023-05-02T08:40:47.818Z,84.66
2023-05-02T08:41:48.044Z,84.92
2023-05-02T08:42:47.889Z,85.13
2023-05-02T08:43:47.957Z,85.63
2023-05-02T08:44:48.178Z,85.84
2023-05-02T08:45:48.025Z,86.45
2023-05-02T08:46:47.820Z,86.04
2023-05-02T08:47:47.924Z,85.13
2023-05-02T08:48:47.820Z,84.00
2023-05-02T08:49:47.950Z,85.13
2023-05-02T08:50:47.759Z,85.94
2023-05-02T08:51:47.884Z,86.96
2023-05-02T08:52:47.765Z,86.10
2023-05-02T08:53:48.064Z,83.86
2023-05-02T08:54:47.777Z,82.03
2023-05-02T08:55:48.086Z,82.68
2023-05-02T08:56:47.811Z,81.96
2023-05-02T08:57:47.807Z,81.49
2023-05-02T08:58:47.673Z,81.59
2023-05-02T08:59:47.800Z,82.92
2023-05-02T09:00:47.652Z,84.31
2023-05-02T09:01:47.808Z,85.84
2023-05-02T09:02:47.850Z,86.04
2023-05-02T09:03:47.659Z,87.23
2023-05-02T09:04:47.976Z,88.24
2023-05-02T09:05:47.577Z,87.73
2023-05-02T09:06:47.774Z,87.08
2023-05-02T09:07:47.706Z,86.77
2023-05-02T09:08:47.620Z,84.12
2023-05-02T09:09:47.597Z,84.12
2023-05-02T09:10:47.486Z,80.87
2023-05-02T09:11:47.589Z,80.56
2023-05-02T09:12:47.517Z,81.27
2023-05-02T09:13:47.590Z,80.66
2023-05-02T09:14:47.407Z,81.17
2023-05-02T09:15:47.520Z,81.68
2023-05-02T09:16:47.460Z,81.68
2023-05-02T09:17:47.599Z,81.58
2023-05-02T09:18:48.275Z,81.79
2023-05-02T09:19:48.257Z,81.88
2023-05-02T09:20:47.970Z,82.40
2023-05-02T09:21:47.452Z,82.26
2023-05-02T09:22:47.270Z,81.48
2023-05-02T09:23:47.430Z,81.58
2023-05-02T09:24:47.451Z,80.93
2023-05-02T09:25:47.396Z,80.32
2023-05-02T09:26:47.251Z,80.32
2023-05-02T09:27:47.431Z,79.44
2023-05-02T09:28:47.254Z,80.66
2023-05-02T09:29:47.435Z,81.79
2023-05-02T09:30:47.221Z,82.40
2023-05-02T09:31:55.597Z,82.29
2023-05-02T09:32:47.144Z,84.74
2023-05-02T09:33:47.274Z,84.43
2023-05-02T09:34:47.113Z,82.09
2023-05-02T09:35:47.301Z,82.26
2023-05-02T09:36:47.206Z,81.24
2023-05-02T09:37:47.170Z,81.44
2023-05-02T09:38:47.404Z,82.32
2023-05-02T09:39:47.065Z,84.86
2023-05-02T09:40:47.218Z,85.27
2023-05-02T09:41:47.016Z,85.68
2023-05-02T09:42:47.384Z,81.06
2023-05-02T09:43:46.958Z,80.96
2023-05-02T09:44:47.222Z,81.93
2023-05-02T09:45:47.056Z,83.73
2023-05-02T09:46:47.338Z,80.17
2023-05-02T09:47:46.907Z,80.54
2023-05-02T09:48:47.044Z,79.32
2023-05-02T09:49:47.049Z,78.61
2023-05-02T09:50:47.237Z,79.12
2023-05-02T09:51:46.844Z,79.52
2023-05-02T09:52:47.050Z,80.24
2023-05-02T09:53:46.892Z,79.83
2023-05-02T09:54:47.179Z,79.32
2023-05-02T09:55:46.828Z,79.32
2023-05-02T09:56:47.013Z,76.78
2023-05-02T09:57:46.791Z,77.76
2023-05-02T09:58:46.935Z,77.76
2023-05-02T09:59:46.750Z,79.75
2023-05-02T10:00:47.044Z,77.99
2023-05-02T10:01:46.756Z,77.34
2023-05-02T10:02:46.895Z,76.13
2023-05-02T10:03:46.773Z,75.99
2023-05-02T10:04:46.870Z,73.36
2023-05-02T10:05:46.726Z,73.22
2023-05-02T10:06:46.948Z,75.21
2023-05-02T10:07:46.692Z,71.47
2023-05-02T10:08:47.509Z,72.08
2023-05-02T10:09:46.665Z,71.67
2023-05-02T10:10:46.865Z,71.37
2023-05-02T10:11:46.647Z,71.37
2023-05-02T10:12:46.722Z,71.26
2023-05-02T10:13:46.594Z,72.65
2023-05-02T10:14:46.758Z,71.50
2023-05-02T10:15:46.606Z,71.30
2023-05-02T10:16:46.757Z,70.09
2023-05-02T10:17:46.628Z,69.65
2023-05-02T10:18:46.675Z,68.03
2023-05-02T10:19:46.488Z,69.07
2023-05-02T10:20:46.738Z,69.24
2023-05-02T10:21:46.469Z,69.14
2023-05-02T10:22:46.677Z,70.46
2023-05-02T10:23:46.451Z,68.00
2023-05-02T10:24:46.708Z,68.27
2023-05-02T10:25:46.463Z,69.35
2023-05-02T10:26:46.715Z,68.24
2023-05-02T10:27:46.743Z,67.43
2023-05-02T10:28:46.505Z,67.23
2023-05-02T10:29:46.750Z,66.96
2023-05-02T10:30:46.590Z,68.77
2023-05-02T10:31:46.402Z,69.15
2023-05-02T10:32:46.619Z,69.75
2023-05-02T10:33:46.314Z,67.43
2023-05-02T10:34:46.595Z,68.71
2023-05-02T10:35:46.657Z,68.98
2023-05-02T10:36:46.320Z,71.40
2023-05-02T10:37:46.458Z,68.14
2023-05-02T10:38:46.273Z,67.71
2023-05-02T10:39:46.390Z,69.18
2023-05-02T10:40:46.411Z,68.88
2023-05-02T10:41:46.226Z,69.15
2023-05-02T10:42:46.309Z,67.81
2023-05-02T10:43:46.393Z,63.39
2023-05-02T10:44:46.430Z,67.61
2023-05-02T10:45:46.151Z,68.18
2023-05-02T10:46:46.532Z,64.06
2023-05-02T10:47:46.636Z,58.53
2023-05-02T10:48:46.350Z,63.96
2023-05-02T10:49:46.092Z,64.29
2023-05-02T10:50:46.335Z,63.39
2023-05-02T10:51:46.116Z,63.71
2023-05-02T10:52:46.385Z,60.63
2023-05-02T10:54:43.878Z,66.19
2023-05-02T10:55:44.727Z,63.47
2023-05-02T10:56:44.876Z,63.90
2023-05-02T10:57:44.741Z,66.42
2023-05-02T10:58:44.869Z,67.84
2023-05-02T10:59:44.665Z,66.96
2023-05-02T11:00:44.805Z,64.84
2023-05-02T11:01:44.680Z,66.08
2023-05-02T11:02:44.964Z,67.93
2023-05-02T11:03:44.660Z,66.22
2023-05-02T11:04:44.861Z,66.82
2023-05-02T11:05:44.585Z,66.02
2023-05-02T11:06:44.946Z,64.53
2023-05-02T11:07:44.594Z,66.25
2023-05-02T11:08:44.804Z,64.87
2023-05-02T11:09:44.576Z,66.52
2023-05-02T11:10:44.779Z,62.98
2023-05-02T11:11:44.602Z,67.15
2023-05-02T11:12:44.555Z,69.98
2023-05-02T11:13:44.671Z,68.87
2023-05-02T11:14:44.553Z,69.38
2023-05-02T11:15:44.575Z,70.69
2023-05-02T11:16:44.589Z,69.68
2023-05-02T11:17:44.536Z,69.07
2023-05-02T11:18:44.436Z,70.29
2023-05-02T11:19:46.148Z,71.70
2023-05-02T11:20:44.427Z,70.18
2023-05-02T11:21:44.541Z,67.15
2023-05-02T11:22:44.400Z,68.67
2023-05-02T11:23:44.427Z,68.97
2023-05-02T11:24:44.444Z,69.18
2023-05-02T11:25:44.586Z,69.14
2023-05-02T11:26:44.396Z,69.04
2023-05-02T11:27:44.334Z,70.15
2023-05-02T11:28:44.534Z,73.19
2023-05-02T11:29:44.326Z,70.83
2023-05-02T11:30:44.415Z,70.32
2023-05-02T11:31:44.359Z,69.18
2023-05-02T11:32:44.507Z,67.76
2023-05-02T11:33:44.242Z,66.12
2023-05-02T11:34:44.462Z,66.29
2023-05-02T11:35:44.305Z,66.16
2023-05-02T11:36:44.312Z,63.81
2023-05-02T11:37:45.100Z,66.83
2023-05-02T11:38:44.270Z,66.60
2023-05-02T11:39:44.292Z,66.70
2023-05-02T11:40:44.310Z,63.04
2023-05-02T11:41:44.175Z,64.65
2023-05-02T11:42:44.265Z,64.95
2023-05-02T11:43:44.109Z,62.57
2023-05-02T11:44:44.362Z,63.57
2023-05-02T11:45:44.179Z,64.48
2023-05-02T11:46:44.342Z,67.77
2023-05-02T11:47:44.255Z,64.15
2023-05-02T11:48:44.078Z,62.61
2023-05-02T11:49:44.131Z,63.68
2023-05-02T11:50:48.591Z,64.69
2023-05-02T11:51:44.043Z,62.35
2023-05-02T11:52:45.338Z,62.95
2023-05-02T11:53:44.018Z,64.33
2023-05-02T11:54:44.042Z,62.82
2023-05-02T11:55:44.036Z,64.96
2023-05-02T11:56:44.084Z,67.38
2023-05-02T11:57:44.000Z,60.64
2023-05-02T11:58:43.973Z,65.16
2023-05-02T11:59:44.007Z,62.48
2023-05-02T12:00:43.911Z,59.79
2023-05-02T12:01:44.000Z,64.12
2023-05-02T12:02:43.926Z,61.63
2023-05-02T12:03:44.196Z,63.85
2023-05-02T12:04:43.933Z,64.65
2023-05-02T12:05:44.099Z,62.04
2023-05-02T12:06:43.897Z,64.28
2023-05-02T12:07:43.919Z,61.86
2023-05-02T12:08:43.827Z,62.29
2023-05-02T12:09:43.854Z,62.40
2023-05-02T12:10:43.858Z,63.90
2023-05-02T12:11:44.127Z,61.79
2023-05-02T12:12:43.770Z,67.23
2023-05-02T12:13:43.914Z,63.00
2023-05-02T12:14:43.762Z,63.81
2023-05-02T12:15:44.013Z,65.22
2023-05-02T12:16:43.863Z,66.33
2023-05-02T12:17:43.821Z,66.09
2023-05-02T12:18:43.835Z,62.37
2023-05-02T12:19:43.687Z,65.99
2023-05-02T12:20:43.831Z,64.55
2023-05-02T12:21:43.644Z,65.16
2023-05-02T12:22:43.837Z,60.52
2023-05-02T12:23:43.609Z,65.83
2023-05-02T12:24:43.702Z,60.77
2023-05-02T12:25:43.560Z,65.30
2023-05-02T12:26:43.668Z,62.75
2023-05-02T12:27:43.552Z,57.92
2023-05-02T12:28:43.546Z,58.42
2023-05-02T12:29:43.599Z,62.45
2023-05-02T12:30:43.600Z,58.42
2023-05-02T12:31:44.108Z,58.73
2023-05-02T12:32:43.685Z,64.96
2023-05-02T12:33:43.564Z,64.83
2023-05-02T12:34:43.503Z,60.31
2023-05-02T12:35:43.586Z,58.73
2023-05-02T12:36:43.524Z,60.27
2023-05-02T12:37:43.837Z,60.36
2023-05-02T12:38:43.429Z,59.46
2023-05-02T12:39:43.469Z,60.89
2023-05-02T12:40:43.392Z,60.39
2023-05-02T12:41:43.658Z,61.93
2023-05-02T12:42:43.431Z,63.54
2023-05-02T12:43:43.429Z,64.45
2023-05-02T12:44:43.551Z,64.89
2023-05-02T12:45:43.372Z,63.17
2023-05-02T12:46:43.540Z,60.58
2023-05-02T12:47:43.435Z,58.87
2023-05-02T12:48:44.802Z,60.78
2023-05-02T12:49:43.312Z,60.88
2023-05-02T12:50:43.394Z,61.59
2023-05-02T12:51:43.271Z,63.98
2023-05-02T12:52:43.501Z,61.83
2023-05-02T12:53:43.341Z,52.77